Terminal Aerodrome Forecast
Issued by NWS Charleston, WV

Current Version | Previous Version | Graphics & Text | Print | Product List | Glossary On
Versions: 1 2 3 4 5 6 7 8 9 10 11 12 13 14 15 16 17 18 19 20 21 22
000
FTUS41 KRLX 161700
TAFHTS
TAF
KHTS 161740Z 1618/1718 16007KT 6SM -SHRA OVC050
     FM162000 15009KT P6SM OVC035
     FM170800 19006KT P6SM OVC020
     FM171600 VRB03KT P6SM SCT020=

USA.gov is the U.S. government's official web portal to all federal, state and local government web resources and services.